Terminal Aerodrome Forecast
Issued by NWS

Home | Current Version | Previous Version | Text Only | Print | Product List | Glossary On
Versions: 1 2 3 4 5 6 7 8 9 10 11 12 13 14 15 16 17 18
060
FTUS46 KSGX 011218 AAA
TAFSNA
TAF AMD
KSNA 011218Z 0112/0212 12003KT P6SM BKN021
      TEMPO 0112/0116 SCT020
     FM011600 19006KT P6SM SCT020
     FM011900 23010KT P6SM FEW025
     FM020200 VRB04KT P6SM SCT020
     FM020700 VRB03KT P6SM BKN020=

USA.gov is the U.S. government's official web portal to all federal, state and local government web resources and services.